• Join FlightAware (Why Join?)
  • Login
  • US Flag 
02:11AM EDT


 

Airport Tracker/Info


-or-


 

Live Flight TrackerFlight Track Log ✈ N531QS ✈ 10-Jun-2013 ✈ KTEB - KVNY

Flight Track Log - Related Links

Times and Time Zones

All times are in EDT time to prevent confusion due to time zone crossing. See the N531QS flight status page for this flight to view local times or setup timezone preferences in your user account.

Time Position Orientation Groundspeed Altitude Reporting Facility
EDT Latitude Longitude Course Direction KTS MPH feet Rate Location/Type
09:05AM 40.8167 -74.1167 285° West 203 234 1,500  Level New York TRACON
09:06AM 40.8333 -74.2000 285° West 252 290 2,800 2,700 Climbing New York TRACON
09:07AM 40.8333 -74.3000 270° West 266 306 6,900 3,600 Climbing New York TRACON
09:08AM 40.8833 -74.3667 315° West 308 354 10,000 1,980 Climbing New York TRACON
09:09AM 40.9667 -74.3667 360° North 306 352 10,900 1,500 Climbing New York TRACON
09:10AM 41.0667 -74.3667 360° North 325 374 13,000 2,280 Climbing New York TRACON
09:11AM 41.1500 -74.3833 351° North 331 381 15,500 1,140 Climbing New York TRACON
09:13AM 41.1581 -74.5272 274° West 297 342 16,000 180 Climbing New York Center
09:14AM 41.1439 -74.6447 261° West 291 335 16,000 360 Level New York Center
09:15AM 41.1575 -74.7394 281° West 291 335 16,800 900 Climbing New York Center
09:16AM 41.2231 -74.8258 315° West 306 352 17,800 1,140 Climbing New York Center
09:17AM 41.3006 -74.8803 332° Northwest 326 375 19,100 1,080 Climbing New York Center
09:18AM 41.3050 -74.9856 273° West 291 335 20,000 1,140 Climbing New York Center
09:19AM 41.3136 -75.0964 276° West 282 325 21,500 1,680 Climbing New York Center
09:20AM 41.3633 -75.2158 299° West 328 377 23,400 1,860 Climbing New York Center
09:21AM 41.4167 -75.3494 298° West 372 428 25,200 1,860 Climbing New York Center
09:22AM 41.4739 -75.4833 300° West 407 468 27,200 1,980 Climbing New York Center
09:23AM 41.5214 -75.6475 291° West 426 490 29,200 1,980 Climbing New York Center
09:24AM 41.5617 -75.7778 292° West 433 498 31,200 1,920 Climbing New York Center
09:25AM 41.6033 -75.9253 291° West 433 498 33,100 1,920 Climbing New York Center
09:26AM 41.6447 -76.0700 291° West 433 498 35,100 1,980 Climbing New York Center
09:27AM 41.6842 -76.2147 290° West 427 491 37,100 1,920 Climbing New York Center
09:28AM 41.7233 -76.3542 291° West 417 480 39,000 1,680 Climbing New York Center
09:29AM 41.7625 -76.4936 291° West 411 473 40,500 1,140 Climbing New York Center
09:30AM 41.8336 -76.7536 290° West 408 470 42,300 840 Climbing Cleveland Center
09:31AM 41.8739 -76.8992 290° West 408 470 43,000 300 Climbing Cleveland Center
09:32AM 41.9142 -77.0531 289° West 419 482 43,000  Level Cleveland Center
09:33AM 41.9564 -77.2072 290° West 431 496 43,000  Level Cleveland Center
09:34AM 41.9983 -77.3614 290° West 437 503 43,000  Level Cleveland Center
09:35AM 42.0400 -77.5161 290° West 437 503 43,000  Level Cleveland Center
09:36AM 42.0772 -77.6681 288° West 437 503 43,000  Level Cleveland Center
09:37AM 42.0942 -77.8436 277° West 432 497 43,000  Level Cleveland Center
09:38AM 42.0958 -78.0031 271° West 427 491 43,000  Level Cleveland Center
09:39AM 42.0972 -78.1625 271° West 422 486 43,000  Level Cleveland Center
09:40AM 42.0981 -78.3053 270° West 422 486 43,000  Level Cleveland Center
09:41AM 42.1011 -78.4647 272° West 422 486 43,000  Level Cleveland Center
09:42AM 42.1019 -78.6297 270° West 428 493 43,000  Level Cleveland Center
09:43AM 42.1044 -78.7892 271° West 428 493 43,000  Level Cleveland Center
09:44AM 42.1069 -78.9514 271° West 434 499 43,000  Level Cleveland Center
09:45AM 42.1092 -79.1139 271° West 439 505 43,000  Level Cleveland Center
09:46AM 42.1092 -79.2872 270° West 439 505 43,000  Level Cleveland Center
09:47AM 42.1108 -79.4525 271° West 433 498 43,000  Level Cleveland Center
09:48AM 42.1100 -79.6119 270° West 433 498 43,000  Level Cleveland Center
09:49AM 42.1114 -79.7714 271° West 433 498 43,000  Level Cleveland Center
09:50AM 42.1125 -79.9367 271° West 439 505 43,000  Level Cleveland Center
09:51AM 42.1111 -80.1017 269° West 439 505 43,000  Level Cleveland Center
09:52AM 42.1097 -80.2669 269° West 439 505 43,000  Level Cleveland Center
09:53AM 42.1119 -80.4347 271° West 439 505 43,000  Level Cleveland Center
09:54AM 42.1081 -80.6056 268° West 449 517 43,000  Level Cleveland Center
09:55AM 42.1078 -80.7792 270° West 454 522 43,000  Level Cleveland Center
09:56AM 42.1075 -80.9469 270° West 460 529 43,000  Level Cleveland Center
09:57AM 42.1047 -81.1178 269° West 460 529 43,000  Level Cleveland Center
09:58AM 42.1058 -81.2883 271° West 455 524 43,000  Level Cleveland Center
09:59AM 42.1006 -81.4339 267° West 455 524 43,000  Level Cleveland Center
10:00AM 42.0992 -81.6047 269° West 455 524 43,000  Level Cleveland Center
10:01AM 42.0975 -81.7725 269° West 455 524 43,000  Level Cleveland Center
10:02AM 42.0936 -81.9431 268° West 455 524 43,000  Level Cleveland Center
10:03AM 42.0914 -82.1136 269° West 460 529 43,000  Level Cleveland Center
10:04AM 42.0869 -82.2786 268° West 449 517 43,000  Level Cleveland Center
10:05AM 42.0844 -82.4492 269° West 449 517 43,000  Level Cleveland Center
10:06AM 42.0817 -82.6172 269° West 454 522 43,000  Level Cleveland Center
10:07AM 42.0742 -82.7875 267° West 459 528 43,000  Level Cleveland Center
10:08AM 42.0706 -82.9747 269° West 459 528 43,000  Level Cleveland Center
10:09AM 42.0669 -83.1425 268° West 459 528 43,000  Level Cleveland Center
10:10AM 42.0628 -83.3158 268° West 459 528 43,000  Level Cleveland Center
10:11AM 42.0544 -83.4889 266° West 459 528 43,000  Level Cleveland Center
10:12AM 42.0525 -83.6425 269° West 459 528 43,000  Level Cleveland Center
10:13AM 42.0436 -83.8128 266° West 459 528 43,000  Level Cleveland Center
10:14AM 42.0492 -83.9892 272° West 465 535 43,000  Level Cleveland Center
10:15AM 42.0375 -84.1592 265° West 465 535 43,000  Level Cleveland Center
10:18AM 42.0192 -84.5650 267° West 461 531 43,000  Level Chicago Center
10:19AM 42.0125 -84.7397 267° West 467 537 43,000  Level Chicago Center
10:20AM 42.0053 -84.9142 267° West 468 539 43,000  Level Chicago Center
10:21AM 41.9975 -85.0875 267° West 466 536 43,000  Level Chicago Center
10:22AM 41.9900 -85.2853 267° West 469 540 43,000  Level Chicago Center
10:23AM 41.9808 -85.4578 266° West 471 542 43,000  Level Chicago Center
10:24AM 41.9722 -85.6314 266° West 472 543 43,000  Level Chicago Center
10:25AM 41.9628 -85.8019 266° West 465 535 43,000  Level Chicago Center
10:26AM 41.9525 -86.0108 266° West 470 541 43,000  Level Chicago Center
10:27AM 41.9425 -86.1842 266° West 468 539 43,000  Level Chicago Center
10:28AM 41.9336 -86.3600 266° West 476 548 43,000  Level Chicago Center
10:29AM 41.9225 -86.5381 265° West 479 551 43,000  Level Chicago Center
10:30AM 41.9128 -86.7281 266° West 477 549 43,000  Level Chicago Center
10:31AM 41.9022 -86.9050 265° West 480 552 43,000  Level Chicago Center
10:32AM 41.8906 -87.0803 265° West 476 548 43,000  Level Chicago Center
10:33AM 41.8781 -87.2897 265° West 475 547 43,000  Level Chicago Center
10:34AM 41.8658 -87.4603 265° West 467 537 43,000  Level Chicago Center
10:35AM 41.8550 -87.6358 265° West 477 549 43,000  Level Chicago Center
10:36AM 41.8433 -87.8131 265° West 483 556 43,000  Level Chicago Center
10:37AM 41.8308 -87.9897 265° West 483 556 43,000  Level Chicago Center
10:38AM 41.8153 -88.1997 264° West 483 556 43,000  Level Chicago Center
10:39AM 41.8022 -88.3753 264° West 481 554 43,000  Level Chicago Center
10:40AM 41.7892 -88.5506 264° West 481 554 43,000  Level Chicago Center
10:42AM 41.7761 -88.7253 264° West 477 549 43,000  Level Chicago Center
10:43AM 41.7597 -88.9339 264° West 473 544 43,000  Level Chicago Center
10:44AM 41.7461 -89.1086 264° West 474 545 43,000  Level Chicago Center
10:45AM 41.7319 -89.2819 264° West 471 542 43,000  Level Chicago Center
10:46AM 41.7172 -89.4564 264° West 475 547 43,000  Level Chicago Center
10:47AM 41.6947 -89.6308 260° West 479 551 43,000  Level Chicago Center
10:48AM 41.6683 -89.8392 260° West 477 549 43,000  Level Chicago Center
10:49AM 41.6525 -89.9867 262° West 474 545 43,000  Level Chicago Center
10:50AM 41.6247 -90.1964 260° West 479 551 43,000  Level Chicago Center
10:51AM 41.6019 -90.3706 260° West 479 551 43,000  Level Chicago Center
10:52AM 41.5786 -90.5414 260° West 468 539 43,000  Level Chicago Center
10:53AM 41.5569 -90.7144 261° West 472 543 43,000  Level Chicago Center
10:54AM 41.5322 -90.8886 259° West 477 549 43,000  Level Chicago Center
10:55AM 41.5042 -91.0958 260° West 475 547 43,000  Level Chicago Center
10:56AM 41.4806 -91.2681 260° West 473 544 43,000  Level Chicago Center
10:57AM 41.4569 -91.4406 260° West 473 544 43,000  Level Chicago Center
10:58AM 41.4322 -91.6108 259° West 470 541 43,000  Level Chicago Center
10:59AM 41.4081 -91.7825 259° West 472 543 43,000  Level Chicago Center
11:00AM 41.3786 -91.9886 259° West 474 545 43,000  Level Chicago Center
11:01AM 41.3533 -92.1578 259° West 471 542 43,000  Level Chicago Center
11:02AM 41.3269 -92.3294 258° West 474 545 43,000  Level Chicago Center
11:03AM 41.3033 -92.4997 260° West 476 548 43,000  Level Chicago Center
11:04AM 41.2775 -92.6753 259° West 484 557 43,000  Level Chicago Center
11:05AM 41.2456 -92.8803 258° West 482 555 43,000  Level Chicago Center
11:06AM 41.2253 -93.0206 259° West 480 552 43,000  Level Minneapolis Center
11:07AM 41.1983 -93.1914 258° West 479 551 43,000  Level Minneapolis Center
11:08AM 41.1708 -93.3628 258° West 480 552 43,000  Level Minneapolis Center
11:09AM 41.1439 -93.5336 258° West 479 551 43,000  Level Minneapolis Center
11:10AM 41.1122 -93.7369 258° West 475 547 43,000  Level Minneapolis Center
11:11AM 41.0861 -93.9064 258° West 474 545 43,000  Level Minneapolis Center
11:12AM 41.0553 -94.0808 257° West 481 554 43,000  Level Minneapolis Center
11:13AM 41.0261 -94.2533 257° West 484 557 43,000  Level Minneapolis Center
11:14AM 40.9936 -94.4572 258° West 482 555 43,000  Level Minneapolis Center
11:15AM 40.9619 -94.6381 257° West 488 562 43,000  Level Minneapolis Center
11:16AM 40.9308 -94.8153 257° West 492 566 43,000  Level Minneapolis Center
11:18AM 40.9000 -94.9900 257° West 490 564 43,000  Level Minneapolis Center
11:19AM 40.8697 -95.1647 257° West 488 562 43,000  Level Minneapolis Center
11:20AM 40.8394 -95.3389 257° West 486 559 43,000  Level Minneapolis Center
11:21AM 40.8089 -95.5114 257° West 483 556 43,000  Level Minneapolis Center
11:22AM 40.7781 -95.6831 257° West 479 551 43,000  Level Minneapolis Center
11:23AM 40.7408 -95.8861 256° West 473 544 43,000  Level Minneapolis Center
11:24AM 40.7108 -96.0553 257° West 472 543 43,000  Level Minneapolis Center
11:25AM 40.6789 -96.2261 256° West 474 545 43,000  Level Minneapolis Center
11:26AM 40.6475 -96.3961 256° West 475 547 43,000  Level Minneapolis Center
11:27AM 40.6167 -96.5658 257° West 475 547 43,000  Level Minneapolis Center
11:28AM 40.5836 -96.7311 255° West 471 542 43,000  Level Minneapolis Center
11:29AM 40.5511 -96.8981 256° West 470 541 43,000  Level Minneapolis Center
11:30AM 40.5136 -97.0956 256° West 467 537 43,000  Level Minneapolis Center
11:31AM 40.4822 -97.2606 256° West 465 535 43,000  Level Minneapolis Center
11:32AM 40.4500 -97.4253 256° West 466 536 43,000  Level Minneapolis Center
11:33AM 40.4175 -97.5900 256° West 466 536 43,000  Level Minneapolis Center
11:34AM 40.3850 -97.7567 256° West 467 537 43,000  Level Minneapolis Center
11:35AM 40.3517 -97.9197 255° West 467 537 43,000  Level Minneapolis Center
11:36AM 40.3128 -98.1119 255° West 461 531 43,000  Level Minneapolis Center
11:37AM 40.2789 -98.2756 255° West 461 531 43,000  Level Minneapolis Center
11:38AM 40.2450 -98.4378 255° West 462 532 43,000  Level Minneapolis Center
11:39AM 40.2119 -98.5989 255° West 461 531 43,000  Level Minneapolis Center
11:40AM 40.1783 -98.7603 255° West 460 529 43,000  Level Minneapolis Center
11:41AM 40.1400 -98.9375 254° West 461 531 43,000  Level Denver Center
11:42AM 40.1069 -99.0919 254° West 462 532 43,000  Level Denver Center
11:43AM 40.0664 -99.2767 254° West 472 543 43,000  Level Denver Center
11:44AM 40.0319 -99.4436 255° West 469 540 43,000  Level Minneapolis Center
11:45AM 39.9964 -99.6042 254° West 467 537 43,000  Level Minneapolis Center
11:46AM 39.9614 -99.7614 254° West 450 518 43,000  Level Denver Center
11:47AM 39.9286 -99.9131 254° West 451 519 43,000  Level Denver Center
11:49AM 39.8892 -100.0900 254° West 454 522 43,000  Level Denver Center
11:50AM 39.8542 -100.2428 253° West 458 527 43,000  Level Denver Center
11:51AM 39.8142 -100.4222 254° West 460 529 43,000  Level Denver Center
11:52AM 39.7797 -100.5767 254° West 463 533 43,000  Level Denver Center
11:53AM 39.7386 -100.7536 253° West 458 527 43,000  Level Denver Center
11:54AM 39.7033 -100.9089 254° West 465 535 43,000  Level Denver Center
11:55AM 39.6617 -101.0856 253° West 461 531 43,000  Level Denver Center
11:56AM 39.6258 -101.2367 253° West 457 526 43,000  Level Denver Center
11:57AM 39.5900 -101.3903 253° West 462 532 43,000  Level Denver Center
11:58AM 39.5475 -101.5700 253° West 468 539 43,000  Level Denver Center
11:59AM 39.5108 -101.7231 253° West 467 537 43,000  Level Denver Center
12:00PM 39.4667 -101.9017 252° West 466 536 43,000  Level Denver Center
12:01PM 39.4306 -102.0575 253° West 470 541 43,000  Level Denver Center
12:02PM 39.3856 -102.2361 252° West 467 537 43,000  Level Denver Center
12:03PM 39.3472 -102.3919 252° West 464 534 43,000  Level Denver Center
12:04PM 39.3097 -102.5464 253° West 464 534 43,000  Level Denver Center
12:05PM 39.2656 -102.7225 252° West 464 534 43,000  Level Denver Center
12:06PM 39.2292 -102.8664 252° West 463 533 43,000  Level Denver Center
12:07PM 39.1819 -103.0533 252° West 458 527 43,000  Level Denver Center
12:08PM 39.1422 -103.2122 252° West 464 534 43,000  Level Denver Center
12:09PM 39.1011 -103.3706 252° West 466 536 43,000  Level Denver Center
12:10PM 39.0611 -103.5283 252° West 464 534 43,000  Level Denver Center
12:11PM 39.0203 -103.6844 251° West 461 531 43,000  Level Denver Center
12:12PM 38.9789 -103.8414 251° West 462 532 43,000  Level Denver Center
12:13PM 38.9292 -104.0311 251° West 466 536 43,000  Level Denver Center
12:14PM 38.8878 -104.1897 252° West 467 537 43,000  Level Denver Center
12:15PM 38.8458 -104.3475 251° West 467 537 43,000  Level Denver Center
12:16PM 38.8044 -104.5025 251° West 461 531 43,000  Level Denver Center
12:17PM 38.7619 -104.6594 251° West 463 533 43,000  Level Denver Center
12:19PM 38.7197 -104.8178 251° West 468 539 43,000  Level Denver Center
12:20PM 38.6767 -104.9742 251° West 466 536 43,000  Level Denver Center
12:21PM 38.6267 -105.1575 251° West 456 525 43,000  Level Denver Center
12:22PM 38.5831 -105.3114 250° West 458 527 43,000  Level Denver Center
12:23PM 38.5403 -105.4678 251° West 465 535 43,000  Level Denver Center
12:24PM 38.4978 -105.6200 250° West 458 527 43,000  Level Denver Center
12:25PM 38.4544 -105.7728 250° West 458 527 43,000  Level Denver Center
12:26PM 38.4047 -105.9478 250° West 458 527 43,000  Level Denver Center
12:27PM 38.3633 -106.0933 250° West 455 524 43,000  Level Denver Center
12:28PM 38.3197 -106.2456 250° West 460 529 43,000  Level Denver Center
12:29PM 38.2761 -106.3958 250° West 452 520 43,000  Level Denver Center
12:30PM 38.2297 -106.5544 250° West 456 525 43,000  Level Denver Center
12:31PM 38.1817 -106.7244 250° West 457 526 43,000  Level Denver Center
12:32PM 38.1336 -106.8847 249° West 462 532 43,000  Level Denver Center
12:33PM 38.0875 -107.0386 249° West 465 535 43,000  Level Denver Center
12:34PM 38.0439 -107.1897 250° West 459 528 43,000  Level Denver Center
12:35PM 37.9931 -107.3597 249° West 460 529 43,000  Level Denver Center
12:36PM 37.9489 -107.5053 249° West 461 531 43,000  Level Denver Center
12:37PM 37.8981 -107.6744 249° West 460 529 43,000  Level Denver Center
12:38PM 37.8533 -107.8197 249° West 462 532 43,000  Level Denver Center
12:39PM 37.8022 -107.9881 249° West 459 528 43,000  Level Denver Center
12:40PM 37.7572 -108.1342 249° West 463 533 43,000  Level Denver Center
12:41PM 37.7056 -108.3044 249° West 465 535 43,000  Level Denver Center
12:42PM 37.6600 -108.4469 248° West 460 529 43,000  Level Denver Center
12:43PM 37.6161 -108.5908 249° West 460 529 43,000  Level Denver Center
12:44PM 37.5636 -108.7578 248° West 458 527 43,000  Level Denver Center
12:45PM 37.5183 -108.8992 248° West 455 524 43,000  Level Denver Center
12:46PM 37.4656 -109.0664 248° West 461 531 43,000  Level Denver Center
12:47PM 37.4189 -109.2114 248° West 466 536 43,000  Level Denver Center
12:48PM 37.3653 -109.3808 248° West 468 539 43,000  Level Denver Center
12:50PM 37.3183 -109.5250 248° West 466 536 43,000  Level Denver Center
12:51PM 37.2636 -109.6947 248° West 470 541 43,000  Level Denver Center
12:52PM 37.2161 -109.8408 248° West 474 545 43,000  Level Denver Center
12:53PM 37.1617 -110.0050 247° West 463 533 43,000  Level Denver Center
12:54PM 37.1142 -110.1489 248° West 467 537 43,000  Level Denver Center
12:55PM 37.0639 -110.2981 247° West 465 535 43,000  Level Denver Center
12:56PM 37.0150 -110.4472 248° West 464 534 43,000  Level Denver Center
12:57PM 36.9553 -110.6261 247° West 464 534 43,000  Level Denver Center
12:58PM 36.9050 -110.7756 247° West 465 535 43,000  Level Denver Center
12:59PM 36.8539 -110.9267 247° West 470 541 43,000  Level Denver Center
01:00PM 36.8022 -111.0778 247° West 472 543 43,000  Level Denver Center
01:01PM 36.7536 -111.2242 248° West 462 532 43,000  Level Denver Center
01:02PM 36.7008 -111.3747 246° West 467 537 43,000  Level Denver Center
01:03PM 36.6383 -111.5519 246° West 467 537 43,000  Level Denver Center
01:04PM 36.5864 -111.7011 247° West 468 539 43,000  Level Denver Center
01:05PM 36.5542 -111.7914 246° West 470 541 43,000  Level Los Angeles Center
01:06PM 36.4939 -111.9678 247° West 463 533 43,000  Level Los Angeles Center
01:07PM 36.4403 -112.1175 246° West 469 540 43,000  Level Los Angeles Center
01:08PM 36.3772 -112.2953 246° West 470 541 43,000  Level Los Angeles Center
01:09PM 36.3244 -112.4444 246° West 470 541 43,000  Level Los Angeles Center
01:10PM 36.2706 -112.5939 246° West 473 544 43,000  Level Los Angeles Center
01:12PM 36.1750 -112.8619 246° West 472 543 43,000  Level Los Angeles Center
01:13PM 36.0986 -113.0711 246° West 475 547 43,000  Level Los Angeles Center
01:14PM 36.0550 -113.1897 246° West 475 547 43,000  Level Los Angeles Center
01:15PM 35.9939 -113.3583 246° West 473 544 43,000  Level Los Angeles Center
01:16PM 35.9319 -113.5281 246° West 475 547 43,000  Level Los Angeles Center
01:17PM 35.8742 -113.6847 246° West 475 547 43,000  Level Los Angeles Center
01:18PM 35.8189 -113.8333 245° Southwest 475 547 43,000  Level Los Angeles Center
01:19PM 35.7636 -113.9806 245° Southwest 472 543 43,000 -240 Level Los Angeles Center
01:21PM 35.7092 -114.1264 245° Southwest 468 539 42,500 -840 Descending Los Angeles Center
01:22PM 35.6428 -114.3014 245° Southwest 468 539 41,100 -2,160 Descending Los Angeles Center
01:23PM 35.5875 -114.4456 245° Southwest 466 536 38,100 -3,000 Descending Los Angeles Center
01:24PM 35.5222 -114.6181 245° Southwest 461 531 34,900 -2,820 Descending Los Angeles Center
01:25PM 35.4703 -114.7542 245° Southwest 444 511 32,300 -2,400 Descending Los Angeles Center
01:26PM 35.4161 -114.8953 245° Southwest 451 519 30,000 -1,140 Descending Los Angeles Center
01:27PM 35.3625 -115.0339 245° Southwest 449 517 30,000  Level Los Angeles Center
01:28PM 35.3086 -115.1733 245° Southwest 451 519 30,000  Level Los Angeles Center
01:29PM 35.2653 -115.2858 245° Southwest 452 520 30,000 -180 Level Los Angeles Center
01:30PM 35.1992 -115.4542 244° Southwest 455 524 29,700 -540 Descending Los Angeles Center
01:31PM 35.1458 -115.5892 244° Southwest 428 493 28,900 -720 Descending Los Angeles Center
01:32PM 35.0983 -115.7100 244° Southwest 405 466 28,200 -780 Descending Los Angeles Center
01:33PM 35.0403 -115.8561 244° Southwest 400 460 27,400 -780 Descending Los Angeles Center
01:34PM 34.9919 -115.9783 244° Southwest 400 460 26,700 -720 Descending Los Angeles Center
01:35PM 34.9450 -116.0981 244° Southwest 394 453 26,000 -600 Descending Los Angeles Center
01:36PM 34.8956 -116.2175 243° Southwest 394 453 25,400 -720 Descending Los Angeles Center
01:37PM 34.8406 -116.3575 244° Southwest 386 444 24,400 -900 Descending Los Angeles Center
01:39PM 34.7975 -116.4761 246° West 382 440 23,400 -1,080 Descending Los Angeles Center
01:40PM 34.7778 -116.6600 263° West 389 448 22,000 -1,200 Descending Los Angeles Center
01:41PM 34.7658 -116.7850 263° West 375 432 21,000 -720 Descending Los Angeles Center
01:42PM 34.7539 -116.9089 263° West 370 426 20,500 -660 Descending Los Angeles Center
01:43PM 34.7408 -117.0319 263° West 367 422 19,700 -900 Descending Los Angeles Center
01:44PM 34.7281 -117.1572 263° West 371 427 18,700 -1,200 Descending Los Angeles Center
01:45PM 34.7156 -117.2781 263° West 360 414 17,300 -1,500 Descending Los Angeles Center
01:46PM 34.7011 -117.4194 263° West 350 403 15,600 -1,500 Descending Los Angeles Center
01:47PM 34.6889 -117.5344 263° West 343 395 14,200 -960 Descending Los Angeles Center
01:48PM 34.6753 -117.6472 262° West 339 390 13,700 -780 Descending Los Angeles Center
01:49PM 34.6586 -117.7556 259° West 327 376 12,600 -1,200 Descending Los Angeles Center
01:50PM 34.6414 -117.8678 259° West 336 387 11,300 -1,200 Descending Los Angeles Center
01:51PM 34.6272 -117.9672 260° West 302 348 10,100 -1,200 Descending Los Angeles Center
01:52PM 34.6139 -118.0539 259° West 268 308 8,900 -1,020 Descending Los Angeles Center
01:53PM 34.5969 -118.1589 259° West 264 304 8,000 -480 Descending Los Angeles Center
01:54PM 34.5856 -118.2361 260° West 262 302 8,000  Level Los Angeles Center
01:55PM 34.5692 -118.3403 259° West 263 303 8,000 -540 Level Los Angeles Center
01:56PM 34.5431 -118.4197 248° West 263 303 7,000 -540 Descending Los Angeles Center
01:57PM 34.5003 -118.4886 233° Southwest 257 296 7,000 -300 Level Los Angeles Center
01:58PM 34.4586 -118.5442 228° Southwest 228 262 6,500 -720 Descending Los Angeles Center
01:59PM 34.4072 -118.5311 168° South 187 215 5,500 -1,080 Descending Los Angeles Center
02:00PM 34.3500 -118.5189 170° South 176 203 4,300 -900 Descending Los Angeles Center
02:02PM 34.3072 -118.5097 170° South 161 185 3,500 -900 Descending Los Angeles Center
02:03PM 34.2614 -118.4972 167° South 149 171 2,300 -1,080 Descending Los Angeles Center
02:04PM 34.2292 -118.4928 173° South 131 151 1,300 -1,020 Descending Los Angeles Center
02:06PM 34.2098 -118.4900 180° South  Level Estimated
02:13PM 34.2098 -118.4900 180° South  Level Estimated